Time;durP1;ratioP1;P1;durP2;ratioP2;P2;SDS_P1;SDS_P2;PMS_P1;PMS_P2;Temp;Humidity;BMP_temperature;BMP_pressure;BME280_temperature;BME280_humidity;BME280_pressure;Samples;Min_cycle;Max_cycle;Signal;HPM_P1;HPM_P2
2020/12/24 00:01:25;;;;;;;2.90;1.80;;;7.20;99.90;;;;;;5066253;28;20036;-76
2020/12/24 00:03:50;;;;;;;4.03;2.15;;;7.20;99.90;;;;;;5066661;28;20032;-76
2020/12/24 00:06:16;;;;;;;4.43;2.25;;;7.20;99.90;;;;;;5066633;28;20492;-76
2020/12/24 00:08:41;;;;;;;3.88;2.42;;;7.20;99.90;;;;;;5066175;28;20028;-75
2020/12/24 00:11:08;;;;;;;5.50;2.83;;;7.20;99.90;;;;;;5066569;28;20528;-74
2020/12/24 00:13:34;;;;;;;3.22;1.75;;;7.20;99.90;;;;;;5048381;28;20131;-74
2020/12/24 00:16:00;;;;;;;5.35;2.25;;;7.20;99.90;;;;;;5066023;28;20039;-74
2020/12/24 00:18:26;;;;;;;3.28;2.00;;;7.30;99.90;;;;;;5065860;28;20056;-74
2020/12/24 00:20:52;;;;;;;3.90;2.40;;;7.20;99.90;;;;;;5066203;28;20080;-75
2020/12/24 00:23:19;;;;;;;3.40;2.35;;;7.20;99.90;;;;;;5065879;28;20025;-76
2020/12/24 00:25:44;;;;;;;3.58;2.15;;;7.20;99.90;;;;;;5066368;28;20033;-74
2020/12/24 00:28:10;;;;;;;3.65;2.13;;;7.10;99.90;;;;;;5048220;28;20036;-74
2020/12/24 00:30:40;;;;;;;3.53;2.20;;;7.10;99.90;;;;;;5065521;28;20040;-74
2020/12/24 00:33:10;;;;;;;6.13;2.33;;;7.00;99.90;;;;;;5066310;28;20028;-74
2020/12/24 00:35:35;;;;;;;3.47;1.90;;;7.00;99.90;;;;;;5065696;28;20021;-74
2020/12/24 00:38:01;;;;;;;2.83;1.73;;;7.00;99.90;;;;;;5064952;28;20121;-74
2020/12/24 00:40:27;;;;;;;2.85;2.05;;;6.90;99.90;;;;;;5066012;28;20032;-75
2020/12/24 00:42:53;;;;;;;2.85;1.80;;;6.90;99.90;;;;;;5065706;28;20032;-75
2020/12/24 00:45:19;;;;;;;5.22;2.05;;;6.80;99.90;;;;;;5047836;28;20032;-75
2020/12/24 00:47:45;;;;;;;2.45;1.52;;;6.80;99.90;;;;;;5066135;28;20029;-76
2020/12/24 00:50:11;;;;;;;2.72;1.60;;;6.80;99.90;;;;;;5065675;28;20025;-76
2020/12/24 00:52:37;;;;;;;2.20;1.58;;;6.70;99.90;;;;;;5047096;28;20095;-75
2020/12/24 00:55:03;;;;;;;3.15;1.75;;;6.70;99.90;;;;;;5065585;28;20040;-75
2020/12/24 00:57:28;;;;;;;2.92;1.33;;;6.60;99.90;;;;;;5065038;28;20049;-74
2020/12/24 00:59:54;;;;;;;3.30;1.58;;;6.60;99.90;;;;;;5047606;28;20032;-75
2020/12/24 01:02:19;;;;;;;3.03;1.45;;;6.70;99.90;;;;;;5065843;28;20025;-75
2020/12/24 01:04:45;;;;;;;1.63;1.15;;;6.60;99.90;;;;;;5065262;28;20104;-77
2020/12/24 01:07:11;;;;;;;1.23;0.85;;;6.50;99.90;;;;;;5065640;28;20029;-75
2020/12/24 01:09:36;;;;;;;1.90;1.15;;;6.50;99.90;;;;;;5065066;28;20033;-76
2020/12/24 01:12:02;;;;;;;7.13;1.00;;;6.40;99.90;;;;;;5046879;28;20084;-75
2020/12/24 01:14:27;;;;;;;2.10;1.20;;;6.40;99.90;;;;;;5065303;28;20033;-74
2020/12/24 01:16:53;;;;;;;3.47;1.23;;;6.40;99.90;;;;;;5047386;28;20029;-74
2020/12/24 01:19:19;;;;;;;1.85;1.00;;;6.50;99.90;;;;;;5064952;28;20045;-73
2020/12/24 01:21:45;;;;;;;1.20;1.00;;;6.40;99.90;;;;;;5065376;28;20029;-73
2020/12/24 01:24:11;;;;;;;1.83;0.77;;;6.40;99.90;;;;;;5047232;28;20036;-75
2020/12/24 01:26:37;;;;;;;0.90;0.70;;;6.40;99.90;;;;;;5064723;28;20021;-74
2020/12/24 01:29:02;;;;;;;0.68;0.40;;;6.30;99.90;;;;;;5065087;28;20431;-75
2020/12/24 01:31:28;;;;;;;1.08;0.63;;;6.30;99.90;;;;;;5064945;28;20025;-75
2020/12/24 01:33:53;;;;;;;1.10;0.88;;;6.30;99.90;;;;;;5064527;28;20076;-74
2020/12/24 01:36:23;;;;;;;1.25;0.75;;;6.20;99.90;;;;;;5065143;28;20036;-74
2020/12/24 01:38:48;;;;;;;5.32;0.70;;;6.20;99.90;;;;;;5064743;28;20080;-77
2020/12/24 01:41:15;;;;;;;1.10;0.60;;;6.20;99.90;;;;;;5064665;28;20017;-75
2020/12/24 01:43:40;;;;;;;1.38;0.50;;;6.20;99.90;;;;;;5065352;28;20048;-73
2020/12/24 01:46:06;;;;;;;1.13;0.82;;;6.10;99.90;;;;;;5064879;28;20025;-74
2020/12/24 01:48:31;;;;;;;0.73;0.40;;;6.10;99.90;;;;;;5063492;28;20420;-73
2020/12/24 01:50:57;;;;;;;1.50;0.65;;;6.20;99.90;;;;;;5046850;28;20033;-77
2020/12/24 01:53:24;;;;;;;0.95;0.40;;;6.10;99.90;;;;;;5064425;28;20056;-74
2020/12/24 01:55:51;;;;;;;0.57;0.38;;;6.00;99.90;;;;;;5064084;28;20040;-74
2020/12/24 01:58:18;;;;;;;1.90;0.77;;;5.90;99.90;;;;;;5064971;28;20124;-76
2020/12/24 02:00:47;;;;;;;0.55;0.45;;;5.80;99.90;;;;;;5064869;28;20465;-74
2020/12/24 02:03:14;;;;;;;0.90;0.63;;;5.90;99.90;;;;;;5046377;28;20036;-73
2020/12/24 02:05:40;;;;;;;1.23;0.40;;;5.90;99.90;;;;;;5064737;28;20168;-74
2020/12/24 02:08:06;;;;;;;1.02;0.63;;;5.80;99.90;;;;;;5064342;28;20469;-74
2020/12/24 02:10:31;;;;;;;0.80;0.45;;;5.80;99.90;;;;;;5064169;28;20028;-73
2020/12/24 02:12:57;;;;;;;0.30;0.30;;;5.90;99.90;;;;;;5046538;28;20018;-74
2020/12/24 02:15:23;;;;;;;0.40;0.20;;;5.90;99.90;;;;;;5064637;28;20067;-73
2020/12/24 02:17:49;;;;;;;0.95;0.50;;;5.90;99.90;;;;;;5064202;28;20040;-75
2020/12/24 02:20:14;;;;;;;0.20;0.10;;;5.90;99.90;;;;;;5046820;28;20025;-74
2020/12/24 02:22:40;;;;;;;1.27;0.30;;;5.90;99.90;;;;;;5046142;28;20033;-74
2020/12/24 02:25:06;;;;;;;0.55;0.40;;;5.90;99.90;;;;;;5064374;28;20029;-73
2020/12/24 02:27:31;;;;;;;0.25;0.10;;;5.90;99.90;;;;;;5064491;28;20032;-74
2020/12/24 02:30:01;;;;;;;1.90;0.50;;;5.90;99.90;;;;;;5064018;28;20064;-74
2020/12/24 02:32:26;;;;;;;0.75;0.63;;;5.90;99.90;;;;;;5064157;28;20032;-76
2020/12/24 02:34:55;;;;;;;0.52;0.38;;;5.90;99.90;;;;;;5064435;28;20017;-75
2020/12/24 02:37:24;;;;;;;1.42;0.50;;;5.90;99.90;;;;;;5064055;28;20067;-74
2020/12/24 02:39:51;;;;;;;0.70;0.25;;;5.90;99.90;;;;;;5064180;28;20025;-74
2020/12/24 02:42:17;;;;;;;0.40;0.30;;;5.90;99.90;;;;;;5064341;28;20032;-74
2020/12/24 02:44:43;;;;;;;0.32;0.30;;;5.90;99.90;;;;;;5046106;28;20056;-74
2020/12/24 02:47:09;;;;;;;1.13;0.30;;;5.90;99.90;;;;;;5046282;28;20029;-74
2020/12/24 02:49:35;;;;;;;0.30;0.30;;;5.90;99.90;;;;;;5046308;28;20025;-74
2020/12/24 02:52:00;;;;;;;0.82;0.32;;;5.90;99.90;;;;;;5045371;28;20029;-74
2020/12/24 02:54:26;;;;;;;0.38;0.30;;;5.80;99.90;;;;;;5064338;28;20024;-73
2020/12/24 02:56:51;;;;;;;0.90;0.40;;;5.80;99.90;;;;;;5064144;28;20206;-74
2020/12/24 02:59:17;;;;;;;0.57;0.40;;;5.70;99.90;;;;;;5045854;28;20036;-74
2020/12/24 03:01:43;;;;;;;0.45;0.45;;;5.70;99.90;;;;;;5067526;28;20381;-74
2020/12/24 03:04:08;;;;;;;2.60;0.43;;;5.60;99.90;;;;;;5067863;28;20445;-76
2020/12/24 03:06:34;;;;;;;0.43;0.30;;;5.60;99.90;;;;;;5049506;28;20120;-77
2020/12/24 03:09:00;;;;;;;0.95;0.45;;;5.70;99.90;;;;;;5067703;28;20028;-74
2020/12/24 03:11:25;;;;;;;0.17;0.17;;;5.50;99.90;;;;;;5049423;28;20025;-74
2020/12/24 03:13:51;;;;;;;0.47;0.38;;;5.50;99.90;;;;;;5067510;28;20024;-74
2020/12/24 03:16:16;;;;;;;0.45;0.30;;;5.40;99.90;;;;;;5067714;28;20029;-75
2020/12/24 03:18:42;;;;;;;1.13;0.22;;;5.50;99.90;;;;;;5067323;28;20041;-73
2020/12/24 03:21:08;;;;;;;0.10;0.10;;;5.40;99.90;;;;;;5049115;28;20055;-75
2020/12/24 03:23:34;;;;;;;0.22;0.10;;;5.40;99.90;;;;;;5049375;28;20025;-74
2020/12/24 03:25:59;;;;;;;0.70;0.38;;;5.30;99.90;;;;;;5048996;28;20092;-74
2020/12/24 03:28:25;;;;;;;0.50;0.30;;;5.30;99.90;;;;;;5067085;28;20029;-75
2020/12/24 03:30:50;;;;;;;0.40;0.20;;;5.20;99.90;;;;;;5049547;28;20028;-75
2020/12/24 03:33:16;;;;;;;0.15;0.05;;;5.20;99.90;;;;;;5049156;28;20052;-77
2020/12/24 03:35:41;;;;;;;1.02;0.38;;;5.30;99.90;;;;;;5067311;28;20029;-77
2020/12/24 03:38:08;;;;;;;0.17;0.17;;;5.20;99.90;;;;;;5066957;28;20044;-73
2020/12/24 03:40:34;;;;;;;0.52;0.20;;;5.10;99.90;;;;;;5066717;28;20029;-74
2020/12/24 03:42:59;;;;;;;0.40;0.15;;;5.20;99.90;;;;;;5067065;28;20025;-74
2020/12/24 03:45:25;;;;;;;0.20;0.10;;;5.10;99.90;;;;;;5048881;28;20029;-77
2020/12/24 03:47:50;;;;;;;1.05;0.40;;;5.10;99.90;;;;;;5066649;28;20033;-75
2020/12/24 03:50:16;;;;;;;0.22;0.15;;;5.00;99.90;;;;;;5067161;28;20025;-76
2020/12/24 03:52:42;;;;;;;0.47;0.17;;;5.00;99.90;;;;;;5066414;28;20049;-75
2020/12/24 03:55:08;;;;;;;0.65;0.30;;;5.00;99.90;;;;;;5066484;28;20025;-74
2020/12/24 03:57:33;;;;;;;1.88;0.22;;;5.00;99.90;;;;;;5066838;28;20036;-74
2020/12/24 03:59:59;;;;;;;0.47;0.25;;;5.00;99.90;;;;;;5048404;28;20064;-74
2020/12/24 04:02:24;;;;;;;0.65;0.30;;;5.00;99.90;;;;;;5048387;28;20043;-74
2020/12/24 04:04:50;;;;;;;1.95;0.20;;;5.10;99.90;;;;;;5066794;28;20057;-74
2020/12/24 04:07:19;;;;;;;0.63;0.40;;;5.10;99.90;;;;;;5066486;28;20029;-77
2020/12/24 04:09:45;;;;;;;0.70;0.40;;;5.10;99.90;;;;;;5048680;28;20463;-76
2020/12/24 04:12:10;;;;;;;0.35;0.20;;;5.10;99.90;;;;;;5047590;28;20094;-76
2020/12/24 04:14:37;;;;;;;1.08;0.77;;;5.00;99.90;;;;;;5048122;28;20029;-76
2020/12/24 04:17:03;;;;;;;0.10;0.10;;;5.00;99.90;;;;;;5066399;28;20051;-76
2020/12/24 04:19:28;;;;;;;0.45;0.30;;;5.00;99.90;;;;;;5048345;28;20029;-74
2020/12/24 04:21:54;;;;;;;0.40;0.25;;;4.90;99.90;;;;;;5065927;28;20025;-76
2020/12/24 04:24:20;;;;;;;0.10;0.10;;;4.90;99.90;;;;;;5066232;28;20037;-78
2020/12/24 04:26:45;;;;;;;0.85;0.20;;;4.90;99.90;;;;;;5048609;28;20039;-77
2020/12/24 04:29:11;;;;;;;0.32;0.20;;;4.80;99.90;;;;;;5047853;28;20029;-76
2020/12/24 04:31:43;;;;;;;0.35;0.30;;;4.70;99.90;;;;;;5048203;28;20034;-76
2020/12/24 04:34:09;;;;;;;0.38;0.30;;;4.70;99.90;;;;;;5066145;28;20025;-77
2020/12/24 04:36:35;;;;;;;1.02;0.80;;;4.70;99.90;;;;;;5065724;28;20028;-76
2020/12/24 04:39:01;;;;;;;1.20;0.82;;;4.70;99.90;;;;;;5048050;28;20037;-75
2020/12/24 04:41:27;;;;;;;1.15;0.60;;;4.80;99.90;;;;;;5065815;28;20385;-76
2020/12/24 04:43:53;;;;;;;0.90;0.73;;;4.70;99.90;;;;;;5066000;28;20033;-77
2020/12/24 04:46:20;;;;;;;0.35;0.17;;;4.60;99.90;;;;;;5047918;28;20495;-77
2020/12/24 04:48:46;;;;;;;0.85;0.35;;;4.60;99.90;;;;;;5065974;28;20083;-77
2020/12/24 04:51:14;;;;;;;0.75;0.30;;;4.50;99.90;;;;;;5065802;28;20029;-77
2020/12/24 04:53:39;;;;;;;7.05;0.60;;;4.50;99.90;;;;;;5065694;28;20095;-77
2020/12/24 04:56:06;;;;;;;1.30;0.40;;;4.50;99.90;;;;;;5065268;28;20029;-76
2020/12/24 04:58:33;;;;;;;1.10;0.40;;;4.40;99.90;;;;;;5047491;28;20052;-76
2020/12/24 05:00:59;;;;;;;0.45;0.13;;;4.40;99.90;;;;;;5047793;28;20021;-77
2020/12/24 05:03:24;;;;;;;0.22;0.20;;;4.40;99.90;;;;;;5065051;28;20033;-76
2020/12/24 05:05:52;;;;;;;0.40;0.10;;;4.30;99.90;;;;;;5065611;28;20028;-77
2020/12/24 05:08:17;;;;;;;0.60;0.40;;;4.30;99.90;;;;;;5065386;28;20021;-77
2020/12/24 05:11:02;;;;;;;0.52;0.35;;;4.40;99.90;;;;;;5047236;28;20124;-76
2020/12/24 05:13:28;;;;;;;0.05;0.03;;;4.30;99.90;;;;;;5047796;28;20029;-77
2020/12/24 05:15:53;;;;;;;0.57;0.30;;;4.30;99.90;;;;;;5047410;28;20021;-76
2020/12/24 05:18:24;;;;;;;0.68;0.30;;;4.20;99.90;;;;;;5065041;28;20039;-76
2020/12/24 05:20:51;;;;;;;0.20;0.13;;;4.20;99.90;;;;;;5065575;28;20052;-75
2020/12/24 05:23:18;;;;;;;1.95;0.30;;;4.20;99.90;;;;;;5064928;28;20028;-76
2020/12/24 05:25:45;;;;;;;0.45;0.40;;;4.20;99.90;;;;;;5047066;28;20484;-76
2020/12/24 05:28:22;;;;;;;0.77;0.45;;;4.20;99.90;;;;;;5065328;28;20025;-76
2020/12/24 05:30:49;;;;;;;0.52;0.38;;;4.20;99.90;;;;;;5047269;28;20384;-76
2020/12/24 05:33:29;;;;;;;0.70;0.38;;;4.20;99.90;;;;;;5065016;28;20033;-76
2020/12/24 05:36:16;;;;;;;0.95;0.65;;;4.20;99.90;;;;;;5047132;28;20036;-77
2020/12/24 05:38:41;;;;;;;2.53;0.57;;;4.20;99.90;;;;;;5046358;28;20412;-75
2020/12/24 05:41:34;;;;;;;1.58;0.73;;;4.20;99.90;;;;;;5064864;28;20080;-77
2020/12/24 05:44:02;;;;;;;0.88;0.57;;;4.20;99.90;;;;;;5065003;28;20025;-76
2020/12/24 05:46:29;;;;;;;1.60;0.85;;;4.10;99.90;;;;;;5046508;28;20088;-76
2020/12/24 05:48:55;;;;;;;1.33;0.65;;;4.10;99.90;;;;;;5064840;28;20044;-76
2020/12/24 05:51:21;;;;;;;7.10;0.93;;;4.10;99.90;;;;;;5046856;28;20032;-77
2020/12/24 05:53:47;;;;;;;1.65;0.45;;;4.20;99.90;;;;;;5064264;28;20041;-77
2020/12/24 05:56:23;;;;;;;2.40;0.60;;;4.10;99.90;;;;;;5065007;28;20025;-77
2020/12/24 05:58:51;;;;;;;0.82;0.45;;;4.10;99.90;;;;;;5064815;28;20072;-77
2020/12/24 06:01:17;;;;;;;5.70;0.98;;;4.20;99.90;;;;;;5046460;28;20056;-77
2020/12/24 06:04:02;;;;;;;1.75;0.85;;;4.20;99.90;;;;;;5064939;28;20466;-77
2020/12/24 06:06:49;;;;;;;2.05;0.90;;;4.20;99.90;;;;;;5064498;28;20083;-77
2020/12/24 06:09:21;;;;;;;0.73;0.40;;;4.20;99.90;;;;;;5064740;28;20032;-77
2020/12/24 06:11:49;;;;;;;0.40;0.30;;;4.10;99.90;;;;;;5046935;28;20025;-77
2020/12/24 06:14:35;;;;;;;1.25;0.45;;;4.20;99.90;;;;;;5064542;28;20017;-78
2020/12/24 06:17:06;;;;;;;1.02;0.50;;;4.20;99.90;;;;;;5046253;28;20040;-76
2020/12/24 06:19:37;;;;;;;1.20;0.55;;;4.30;99.90;;;;;;5064404;28;20044;-77
2020/12/24 06:22:03;;;;;;;2.13;1.00;;;4.20;99.90;;;;;;5046104;28;20029;-78
2020/12/24 06:24:33;;;;;;;0.57;0.50;;;4.20;99.90;;;;;;5064381;28;20104;-76
2020/12/24 06:27:03;;;;;;;1.30;0.57;;;4.20;99.90;;;;;;5064201;28;20072;-76
2020/12/24 06:29:32;;;;;;;0.50;0.40;;;4.20;99.90;;;;;;5064375;28;20048;-76
2020/12/24 06:31:59;;;;;;;1.73;0.47;;;4.20;99.90;;;;;;5046477;28;20029;-77
2020/12/24 06:34:28;;;;;;;0.55;0.40;;;4.30;99.90;;;;;;5064044;28;20032;-76
2020/12/24 06:36:55;;;;;;;2.92;0.75;;;4.20;99.90;;;;;;5068230;28;20025;-78
2020/12/24 06:39:44;;;;;;;0.57;0.57;;;4.20;99.90;;;;;;5050185;28;20047;-78
2020/12/24 06:42:39;;;;;;;0.30;0.20;;;4.20;99.90;;;;;;5049830;28;20139;-78
2020/12/24 06:45:35;;;;;;;0.95;0.52;;;4.20;99.90;;;;;;5050708;28;20492;-77
2020/12/24 06:48:22;;;;;;;0.65;0.30;;;4.20;99.90;;;;;;5048861;28;20033;-77
2020/12/24 06:50:49;;;;;;;0.57;0.35;;;4.20;99.90;;;;;;5057150;28;20101;-77
2020/12/24 06:53:33;;;;;;;1.85;0.57;;;4.20;99.90;;;;;;5067750;28;20080;-77
2020/12/24 06:56:17;;;;;;;1.23;0.45;;;4.20;99.90;;;;;;5082841;28;20033;-76
2020/12/24 06:58:47;;;;;;;0.87;0.63;;;4.30;99.90;;;;;;5049862;28;20041;-76
2020/12/24 07:01:19;;;;;;;1.00;0.50;;;4.20;99.90;;;;;;5068009;28;20036;-76
2020/12/24 07:03:46;;;;;;;0.73;0.40;;;4.20;99.90;;;;;;5049849;28;20100;-77
2020/12/24 07:06:12;;;;;;;1.33;0.60;;;4.20;99.90;;;;;;5050234;28;20041;-76
2020/12/24 07:08:45;;;;;;;2.28;0.40;;;4.10;99.90;;;;;;5067400;28;20028;-78
2020/12/24 07:11:10;;;;;;;0.43;0.30;;;4.10;99.90;;;;;;5049353;28;20728;-76
2020/12/24 07:13:36;;;;;;;1.05;0.68;;;4.10;99.90;;;;;;5067594;28;20025;-77
2020/12/24 07:16:08;;;;;;;5.97;0.50;;;4.10;99.90;;;;;;5067406;28;20175;-76
2020/12/24 07:18:38;;;;;;;0.47;0.25;;;4.10;99.90;;;;;;5067345;28;20094;-78
2020/12/24 07:21:05;;;;;;;0.47;0.20;;;4.10;99.90;;;;;;5066453;28;20044;-77
2020/12/24 07:23:40;;;;;;;1.95;0.38;;;4.10;99.90;;;;;;5067000;28;20032;-76
2020/12/24 07:26:08;;;;;;;0.80;0.60;;;4.10;99.90;;;;;;5067238;28;20361;-77
2020/12/24 07:28:36;;;;;;;0.20;0.10;;;4.10;99.90;;;;;;5049187;28;20049;-76
2020/12/24 07:31:07;;;;;;;0.77;0.25;;;4.20;99.90;;;;;;5066689;28;20081;-77
2020/12/24 07:33:33;;;;;;;1.13;0.30;;;4.20;99.90;;;;;;5049355;28;20057;-78
2020/12/24 07:36:00;;;;;;;0.30;0.30;;;4.20;99.90;;;;;;5066953;28;20025;-77
2020/12/24 07:38:27;;;;;;;0.68;0.55;;;4.20;99.90;;;;;;5066519;28;20040;-76
2020/12/24 07:40:54;;;;;;;0.50;0.28;;;4.20;99.90;;;;;;5049147;28;20037;-78
2020/12/24 07:43:20;;;;;;;1.88;0.45;;;4.20;99.90;;;;;;5082733;28;20095;-77
2020/12/24 07:45:46;;;;;;;1.98;0.30;;;4.20;99.90;;;;;;5066575;28;20104;-77
2020/12/24 07:48:16;;;;;;;1.20;0.65;;;4.20;99.90;;;;;;5049242;28;20059;-77
2020/12/24 07:50:42;;;;;;;0.77;0.40;;;4.10;99.90;;;;;;5048617;28;20033;-76
2020/12/24 07:53:09;;;;;;;2.15;0.47;;;4.10;99.90;;;;;;5047788;28;20044;-76
2020/12/24 07:55:35;;;;;;;1.60;0.22;;;4.10;99.90;;;;;;5048690;28;20025;-77
2020/12/24 07:58:12;;;;;;;0.55;0.40;;;4.10;99.90;;;;;;5066441;28;20110;-75
2020/12/24 08:00:46;;;;;;;0.93;0.63;;;4.20;99.90;;;;;;5086203;28;20123;-77
2020/12/24 08:03:16;;;;;;;0.30;0.30;;;4.20;99.90;;;;;;5085128;28;20020;-77
2020/12/24 08:05:43;;;;;;;1.45;0.52;;;4.20;99.90;;;;;;5084765;28;20060;-77
2020/12/24 08:08:10;;;;;;;0.38;0.30;;;4.30;99.90;;;;;;5066789;28;20465;-76
2020/12/24 08:10:43;;;;;;;0.70;0.35;;;4.30;99.90;;;;;;5065427;28;20032;-78
2020/12/24 08:13:10;;;;;;;2.17;0.57;;;4.30;99.90;;;;;;5085368;28;20492;-77
2020/12/24 08:15:46;;;;;;;1.27;0.75;;;4.30;99.90;;;;;;5085807;28;20027;-79
2020/12/24 08:18:14;;;;;;;1.65;0.60;;;4.30;99.90;;;;;;5086201;28;20032;-78
2020/12/24 08:21:06;;;;;;;2.00;0.30;;;4.30;99.90;;;;;;5067755;28;20027;-78
2020/12/24 08:23:55;;;;;;;1.33;0.63;;;4.30;99.90;;;;;;5067789;28;20031;-79
2020/12/24 08:26:21;;;;;;;3.13;0.68;;;4.40;99.90;;;;;;5067836;28;20054;-77
2020/12/24 08:28:55;;;;;;;1.10;0.50;;;4.40;99.90;;;;;;5085430;28;20040;-79
2020/12/24 08:31:26;;;;;;;2.70;1.15;;;4.40;99.90;;;;;;5067611;28;20032;-79
2020/12/24 08:33:53;;;;;;;1.08;0.88;;;4.40;99.90;;;;;;5067867;28;20310;-76
2020/12/24 08:36:27;;;;;;;0.63;0.35;;;4.50;99.90;;;;;;5085340;28;20028;-75
2020/12/24 08:39:07;;;;;;;4.45;0.80;;;4.50;99.90;;;;;;5067211;28;20048;-76
2020/12/24 08:41:35;;;;;;;2.92;0.90;;;4.60;99.90;;;;;;5066909;28;20037;-78
2020/12/24 08:44:03;;;;;;;1.52;0.73;;;4.60;99.90;;;;;;5066892;28;20035;-76
2020/12/24 08:46:29;;;;;;;2.90;0.93;;;4.60;99.90;;;;;;5084975;28;20024;-77
2020/12/24 08:48:55;;;;;;;2.58;1.02;;;4.60;99.90;;;;;;5084443;28;20043;-77
2020/12/24 08:51:21;;;;;;;3.40;0.98;;;4.70;99.90;;;;;;5066791;28;20025;-78
2020/12/24 08:53:49;;;;;;;4.88;1.25;;;4.60;99.90;;;;;;5084565;28;20072;-77
2020/12/24 08:56:17;;;;;;;1.27;1.02;;;4.70;99.90;;;;;;5084455;28;20024;-77
2020/12/24 08:58:54;;;;;;;2.55;1.42;;;4.60;99.90;;;;;;5084381;28;20041;-76
2020/12/24 09:01:21;;;;;;;3.42;1.63;;;4.70;99.90;;;;;;5066435;28;20030;-77
2020/12/24 09:03:48;;;;;;;5.88;2.08;;;4.70;99.90;;;;;;5065201;28;20571;-78
2020/12/24 09:06:15;;;;;;;4.18;2.17;;;4.80;99.90;;;;;;5066520;28;20078;-76
2020/12/24 09:08:48;;;;;;;4.05;2.13;;;4.80;99.90;;;;;;5083922;28;20063;-77
2020/12/24 09:11:31;;;;;;;12.82;1.90;;;4.80;99.90;;;;;;5066203;28;20035;-79
2020/12/24 09:14:02;;;;;;;2.58;1.73;;;4.70;99.90;;;;;;5085042;28;20028;-77
2020/12/24 09:16:30;;;;;;;5.53;2.03;;;4.70;99.90;;;;;;5066246;28;20498;-79
2020/12/24 09:19:07;;;;;;;3.63;1.98;;;4.70;99.90;;;;;;5069859;28;20036;-79
2020/12/24 09:21:34;;;;;;;3.90;2.25;;;4.80;99.90;;;;;;5065585;28;20029;-78
2020/12/24 09:24:17;;;;;;;4.78;2.10;;;4.70;99.90;;;;;;5066986;28;20050;-84
2020/12/24 09:26:49;;;;;;;4.95;2.28;;;4.80;99.90;;;;;;5067819;28;20025;-85
2020/12/24 09:29:15;;;;;;;2.13;1.65;;;4.70;99.90;;;;;;5066518;28;20025;-81
2020/12/24 09:31:41;;;;;;;4.55;2.58;;;4.70;99.90;;;;;;5082366;28;20089;-78
2020/12/24 09:34:07;;;;;;;4.60;2.55;;;4.80;99.90;;;;;;5082689;28;20108;-78
2020/12/24 09:36:33;;;;;;;4.93;2.33;;;4.80;99.90;;;;;;5082892;28;20028;-79
2020/12/24 09:39:00;;;;;;;3.45;1.90;;;4.80;99.90;;;;;;5083118;28;20047;-82
2020/12/24 09:41:30;;;;;;;3.72;1.83;;;4.90;99.90;;;;;;5084307;28;20417;-80
2020/12/24 09:43:55;;;;;;;2.67;1.92;;;4.90;99.90;;;;;;5103680;28;20036;-80
2020/12/24 09:46:21;;;;;;;7.13;1.60;;;4.90;99.90;;;;;;5105198;28;20047;-83
2020/12/24 09:48:48;;;;;;;3.15;1.73;;;5.00;99.90;;;;;;5075619;28;20029;-80
2020/12/24 09:51:13;;;;;;;2.08;1.35;;;4.90;99.90;;;;;;5070993;28;20072;-79
2020/12/24 09:53:39;;;;;;;4.65;1.70;;;4.90;99.90;;;;;;5065596;28;20403;-78
2020/12/24 09:56:07;;;;;;;1.50;0.98;;;4.90;99.90;;;;;;5065825;28;20028;-83
2020/12/24 09:58:33;;;;;;;5.65;2.10;;;4.90;99.90;;;;;;5064291;28;20055;-79
2020/12/24 10:01:00;;;;;;;3.80;2.03;;;5.10;99.90;;;;;;5083651;28;20020;-79
2020/12/24 10:03:25;;;;;;;3.25;1.65;;;5.10;99.90;;;;;;5065953;28;20025;-79
2020/12/24 10:05:51;;;;;;;3.42;1.52;;;5.10;99.90;;;;;;5065426;28;20016;-80
2020/12/24 10:08:16;;;;;;;4.30;1.58;;;5.10;99.90;;;;;;5066030;28;20067;-81
2020/12/24 10:10:44;;;;;;;1.73;1.55;;;5.30;99.90;;;;;;5085957;28;20094;-80
2020/12/24 10:13:09;;;;;;;9.02;2.13;;;5.20;99.90;;;;;;5092179;28;20024;-81
2020/12/24 10:15:35;;;;;;;7.78;2.13;;;5.20;99.90;;;;;;5089871;28;20109;-78
2020/12/24 10:18:00;;;;;;;3.47;1.77;;;5.20;99.90;;;;;;5089488;28;20472;-79
2020/12/24 10:20:26;;;;;;;3.80;2.05;;;5.20;99.90;;;;;;5094693;28;20042;-80
2020/12/24 10:22:52;;;;;;;3.50;1.70;;;5.20;99.90;;;;;;5069727;28;20452;-81
2020/12/24 10:25:17;;;;;;;4.32;2.05;;;5.30;99.90;;;;;;5069668;28;20020;-78
2020/12/24 10:27:43;;;;;;;5.18;2.00;;;5.30;99.90;;;;;;5069120;28;20028;-79
2020/12/24 10:30:09;;;;;;;3.08;2.00;;;5.40;99.90;;;;;;5069052;28;20582;-79
2020/12/24 10:32:36;;;;;;;2.80;1.30;;;5.30;99.90;;;;;;5070035;28;20051;-81
2020/12/24 10:35:02;;;;;;;5.25;2.50;;;5.20;99.90;;;;;;5067476;28;20040;-79
2020/12/24 10:37:30;;;;;;;3.03;1.55;;;5.30;99.90;;;;;;5067542;28;20021;-81
2020/12/24 10:39:55;;;;;;;1.80;1.17;;;5.30;99.90;;;;;;5068805;28;20044;-78
2020/12/24 10:42:21;;;;;;;4.43;1.58;;;5.30;99.90;;;;;;5087317;28;20387;-80
2020/12/24 10:44:47;;;;;;;2.72;1.83;;;5.30;99.90;;;;;;5069776;28;20028;-81
2020/12/24 10:47:13;;;;;;;7.68;1.92;;;5.40;99.90;;;;;;5068943;28;20029;-80
2020/12/24 10:49:41;;;;;;;4.72;1.50;;;5.40;99.90;;;;;;5087245;28;20032;-81
2020/12/24 10:52:11;;;;;;;1.60;1.27;;;5.50;99.90;;;;;;5068247;28;20039;-78
2020/12/24 10:54:36;;;;;;;3.75;1.48;;;5.60;99.90;;;;;;5084469;28;20932;-79
2020/12/24 10:57:02;;;;;;;1.70;0.90;;;5.70;99.90;;;;;;5068101;28;20118;-83
2020/12/24 10:59:28;;;;;;;2.20;0.77;;;5.90;99.90;;;;;;5069612;28;20036;-80
2020/12/24 11:01:54;;;;;;;16.80;1.40;;;6.00;99.90;;;;;;5087436;28;20048;-79
2020/12/24 11:04:20;;;;;;;2.03;1.20;;;6.10;99.90;;;;;;5086348;28;20057;-79
2020/12/24 11:06:46;;;;;;;1.42;1.25;;;6.40;99.90;;;;;;5086983;28;20032;-77
2020/12/24 11:09:13;;;;;;;1.65;1.13;;;6.70;99.90;;;;;;5068382;28;20754;-78
2020/12/24 11:11:39;;;;;;;2.60;1.55;;;7.00;99.90;;;;;;5066358;28;20035;-78
2020/12/24 11:14:06;;;;;;;1.95;0.98;;;7.20;99.90;;;;;;5083501;28;20021;-78
2020/12/24 11:16:32;;;;;;;0.98;0.60;;;7.30;99.90;;;;;;5085624;28;20021;-78
2020/12/24 11:19:02;;;;;;;1.75;0.90;;;7.40;99.90;;;;;;5067258;28;20037;-79
2020/12/24 11:21:32;;;;;;;1.02;0.70;;;7.40;99.90;;;;;;5067628;28;20028;-80
2020/12/24 11:24:04;;;;;;;1.08;0.65;;;7.40;99.90;;;;;;5066126;28;20024;-79
2020/12/24 11:26:30;;;;;;;1.67;0.75;;;7.40;99.90;;;;;;5086380;28;20475;-77
2020/12/24 11:28:55;;;;;;;5.07;1.02;;;7.50;99.90;;;;;;5085659;28;20024;-79
2020/12/24 11:31:30;;;;;;;1.80;0.68;;;7.50;99.90;;;;;;5068114;28;20031;-78
2020/12/24 11:33:56;;;;;;;1.20;0.70;;;7.50;99.90;;;;;;5068441;28;20115;-78
2020/12/24 11:36:22;;;;;;;1.40;0.88;;;7.60;99.90;;;;;;5068438;28;20028;-78
2020/12/24 11:38:49;;;;;;;1.17;0.80;;;7.60;99.90;;;;;;5067968;28;20044;-79
2020/12/24 11:41:16;;;;;;;1.02;0.57;;;7.50;99.90;;;;;;5068704;28;20028;-78
2020/12/24 11:43:42;;;;;;;2.58;1.02;;;7.50;99.90;;;;;;5067942;28;20024;-80
2020/12/24 11:46:11;;;;;;;0.88;0.73;;;7.60;99.90;;;;;;5068111;28;20024;-78
2020/12/24 11:48:38;;;;;;;1.67;0.85;;;7.50;99.90;;;;;;5069312;28;20055;-77
2020/12/24 11:51:08;;;;;;;1.08;0.70;;;7.50;99.90;;;;;;5095592;28;20115;-78
2020/12/24 11:53:35;;;;;;;3.53;0.70;;;7.50;99.90;;;;;;5092107;28;20049;-79
2020/12/24 11:56:02;;;;;;;3.63;0.68;;;7.50;99.90;;;;;;5090191;28;20024;-79
2020/12/24 11:58:27;;;;;;;1.33;0.55;;;7.40;99.90;;;;;;5074961;28;20045;-78
2020/12/24 12:00:53;;;;;;;1.10;0.63;;;7.30;99.90;;;;;;5085993;28;20127;-81
2020/12/24 12:03:19;;;;;;;1.38;1.05;;;7.20;99.90;;;;;;5083830;28;20029;-78
2020/12/24 12:05:44;;;;;;;1.15;0.98;;;7.20;99.90;;;;;;5083234;28;20059;-80
2020/12/24 12:08:10;;;;;;;2.28;1.02;;;7.20;99.90;;;;;;5083500;28;20029;-80
2020/12/24 12:10:36;;;;;;;0.70;0.47;;;7.20;99.90;;;;;;5068669;28;20032;-78
2020/12/24 12:13:02;;;;;;;1.67;0.60;;;7.30;99.90;;;;;;5086402;28;20036;-79
2020/12/24 12:15:28;;;;;;;1.20;0.57;;;7.20;99.90;;;;;;5066856;28;20078;-79
2020/12/24 12:17:54;;;;;;;3.33;0.43;;;7.20;99.90;;;;;;5065070;28;20028;-79
2020/12/24 12:20:20;;;;;;;0.88;0.40;;;7.20;99.90;;;;;;5084356;28;20020;-78
2020/12/24 12:22:46;;;;;;;1.10;0.70;;;7.10;99.90;;;;;;5067272;28;20052;-78
2020/12/24 12:25:12;;;;;;;0.70;0.65;;;7.10;99.90;;;;;;5084852;28;20107;-77
2020/12/24 12:27:38;;;;;;;0.85;0.63;;;7.00;99.90;;;;;;5065641;28;20086;-77
2020/12/24 12:30:05;;;;;;;0.82;0.50;;;7.10;99.90;;;;;;5084384;28;20025;-78
2020/12/24 12:32:31;;;;;;;2.90;0.73;;;7.10;99.90;;;;;;5082814;28;20025;-78
2020/12/24 12:34:57;;;;;;;2.90;0.95;;;7.10;99.90;;;;;;5082112;28;20035;-78
2020/12/24 12:37:23;;;;;;;1.30;0.63;;;7.10;99.90;;;;;;5081451;28;20024;-78
2020/12/24 12:39:51;;;;;;;1.50;0.57;;;7.20;99.90;;;;;;5078224;28;20043;-80
2020/12/24 12:42:20;;;;;;;0.65;0.25;;;7.30;99.90;;;;;;5087917;28;20114;-81
2020/12/24 12:44:45;;;;;;;1.27;0.63;;;7.30;99.90;;;;;;5087136;28;20077;-79
2020/12/24 12:47:11;;;;;;;9.52;0.82;;;7.40;99.90;;;;;;5087197;28;20020;-79
2020/12/24 12:49:37;;;;;;;4.03;0.75;;;7.60;99.90;;;;;;5088163;28;20035;-81
2020/12/24 12:52:04;;;;;;;0.77;0.40;;;7.70;99.90;;;;;;5105046;28;20055;-80
2020/12/24 12:54:30;;;;;;;4.40;1.27;;;7.80;99.90;;;;;;5086964;28;20028;-79
2020/12/24 12:56:56;;;;;;;2.28;1.38;;;7.90;99.90;;;;;;5105263;28;20444;-81
2020/12/24 12:59:22;;;;;;;6.18;1.23;;;7.90;99.90;;;;;;5086965;28;20056;-80
2020/12/24 13:01:52;;;;;;;2.38;0.98;;;7.90;99.90;;;;;;5087364;28;20391;-80